Flight Track Log - Related Links

Times and Time Zones

All times are in EDT time to prevent confusion due to time zone crossing. See the EJA952 flight status page for this flight to view local times or setup timezone preferences in your user account.

Time Position Orientation Groundspeed Altitude Reporting Facility
EDT Latitude Longitude Course Direction KTS MPH feet Rate Location/Type
Sun 02:15:07 PM 40.7500 -74.4333 217° Southwest 182 209 1,900  Level New York TRACON
Sun 02:16:50 PM 40.6611 -74.4314 179° South 219 252 6,100 2,613 Climbing New York Center
Sun 02:17:50 PM 40.6564 -74.5158 266° West 149 171 9,000 2,479 Climbing New York Center
Sun 02:18:51 PM 40.6414 -74.5917 255° West 195 224 11,100 1,983 Climbing New York Center
Sun 02:19:51 PM 40.6211 -74.7000 256° West 265 305 13,000 1,613 Climbing New York Center
Sun 02:20:00 PM 40.4081 -75.2586 217° Southwest  Level FlightAware Approximate
Sun 02:20:50 PM 40.6011 -74.8028 256° West 316 364 14,300  Level New York Center
Sun 02:22:51 PM 40.5378 -75.0639 252° West 366 421 17,400 1,575 Climbing New York Center
Sun 02:23:49 PM 40.4692 -75.1742 231° Southwest 373 429 19,000 1,462 Climbing New York Center
Sun 02:24:50 PM 40.4153 -75.2744 235° Southwest 386 444 20,300 1,388 Climbing New York Center
Sun 02:25:50 PM 40.3522 -75.3928 235° Southwest 391 450 21,800 1,488 Climbing New York Center
Sun 02:26:51 PM 40.2936 -75.5058 236° Southwest 391 450 23,300 1,488 Climbing New York Center
Sun 02:27:51 PM 40.2328 -75.6186 235° Southwest 391 450 24,800 1,488 Climbing New York Center
Sun 02:28:52 PM 40.1717 -75.7339 235° Southwest 391 450 26,300 1,525 Climbing New York Center
Sun 02:29:49 PM 40.1128 -75.8464 236° Southwest 386 444 27,800 1,525 Climbing New York Center
Sun 02:30:50 PM 40.0514 -75.9639 236° Southwest 391 450 29,300 1,488 Climbing New York Center
Sun 02:31:50 PM 39.9897 -76.0814 236° Southwest 391 450 30,800 1,500 Climbing New York Center
Sun 02:32:50 PM 39.9242 -76.1956 233° Southwest 391 450 32,300 1,328 Climbing New York Center
Sun 02:33:52 PM 39.8561 -76.3147 233° Southwest 401 461 33,500 1,286 Climbing New York Center
Sun 02:35:10 PM 39.7667 -76.4878 236° Southwest 432 497 35,300 1,632 Climbing Washington Center
Sun 02:36:08 PM 39.6947 -76.6136 233° Southwest 442 509 37,200 1,664 Climbing Washington Center
Sun 02:37:09 PM 39.6269 -76.7367 234° Southwest 442 509 38,600 1,366 Climbing Washington Center
Sun 02:38:11 PM 39.5611 -76.8594 235° Southwest 431 496 40,000 700 Climbing Washington Center
Sun 02:39:09 PM 39.4869 -76.9844 232° Southwest 431 496 40,000  Level Washington Center
Sun 02:40:07 PM 39.3897 -77.0900 220° Southwest 444 511 40,000  Level Washington Center
Sun 02:41:08 PM 39.2861 -77.1978 219° Southwest 465 535 40,000  Level Washington Center
Sun 02:42:08 PM 39.1806 -77.3081 219° Southwest 479 551 40,000  Level Washington Center
Sun 02:43:19 PM 39.0789 -77.4153 219° Southwest 484 557 40,000  Level Washington Center
Sun 02:44:19 PM 38.9539 -77.5456 219° Southwest 478 550 40,000  Level Washington Center
Sun 02:45:19 PM 38.8583 -77.6417 218° Southwest 489 563 40,000  Level Washington Center
Sun 02:46:20 PM 38.7500 -77.7531 219° Southwest 495 570 40,000  Level Washington Center
Sun 02:47:20 PM 38.6417 -77.8694 220° Southwest 502 578 40,000  Level Washington Center
Sun 02:48:21 PM 38.5642 -77.9947 232° Southwest 489 563 40,000  Level Washington Center
Sun 02:49:19 PM 38.4864 -78.1300 234° Southwest 489 563 40,000  Level Washington Center
Sun 02:50:19 PM 38.4042 -78.2678 233° Southwest 489 563 40,000  Level Washington Center
Sun 02:51:20 PM 38.3258 -78.4025 233° Southwest 484 557 40,000  Level Washington Center
Sun 02:52:20 PM 38.2369 -78.5497 232° Southwest 484 557 40,000  Level Washington Center
Sun 02:53:20 PM 38.1778 -78.6583 235° Southwest 484 557 40,000  Level Washington Center
Sun 02:54:21 PM 38.0819 -78.8181 233° Southwest 484 557 40,000  Level Washington Center
Sun 02:55:21 PM 37.9989 -78.9517 232° Southwest 484 557 40,000  Level Washington Center
Sun 02:56:21 PM 37.9181 -79.0875 233° Southwest 490 564 40,000  Level Washington Center
Sun 02:57:19 PM 37.8539 -79.2108 237° Southwest 490 564 40,000  Level Washington Center
Sun 02:58:19 PM 37.7828 -79.3544 238° Southwest 484 557 40,000  Level Washington Center
Sun 02:59:20 PM 37.7094 -79.4953 237° Southwest 484 557 40,000  Level Washington Center
Sun 03:00:21 PM 37.6311 -79.6511 238° Southwest 484 557 40,000  Level Washington Center
Sun 03:01:21 PM 37.5706 -79.7764 239° Southwest 483 556 40,000  Level Washington Center
Sun 03:03:32 PM 37.4006 -80.1047 237° Southwest 490 564 40,000  Level Atlanta Center
Sun 03:04:32 PM 37.3278 -80.2442 237° Southwest 485 558 40,000  Level Atlanta Center
Sun 03:05:32 PM 37.2569 -80.3806 237° Southwest 480 552 40,000  Level Atlanta Center
Sun 03:06:32 PM 37.1858 -80.5167 237° Southwest 475 547 40,000  Level Atlanta Center
Sun 03:07:32 PM 37.1228 -80.6419 238° Southwest 475 547 40,000  Level Atlanta Center
Sun 03:08:32 PM 37.0578 -80.7850 240° Southwest 475 547 40,000  Level Atlanta Center
Sun 03:09:32 PM 37.0033 -80.9331 245° Southwest 468 539 40,000  Level Atlanta Center
Sun 03:10:32 PM 36.9469 -81.0989 247° West 473 544 40,000  Level Atlanta Center
Sun 03:11:32 PM 36.8939 -81.2461 246° West 473 544 40,000  Level Atlanta Center
Sun 03:12:32 PM 36.8411 -81.3931 246° West 468 539 40,000  Level Atlanta Center
Sun 03:13:32 PM 36.7936 -81.5269 246° West 468 539 40,000  Level Atlanta Center
Sun 03:14:32 PM 36.7425 -81.6761 247° West 468 539 40,000  Level Atlanta Center
Sun 03:15:32 PM 36.6889 -81.8253 246° West 468 539 40,000  Level Atlanta Center
Sun 03:16:32 PM 36.6331 -81.9717 245° Southwest 460 529 40,000  Level Atlanta Center
Sun 03:17:32 PM 36.5772 -82.1206 245° Southwest 465 535 40,000  Level Atlanta Center
Sun 03:18:32 PM 36.5189 -82.2667 244° Southwest 465 535 40,000  Level Atlanta Center
Sun 03:19:32 PM 36.4458 -82.4050 237° Southwest 483 556 40,000  Level Atlanta Center
Sun 03:20:32 PM 36.3622 -82.5511 235° Southwest 483 556 40,000  Level Atlanta Center
Sun 03:21:32 PM 36.2844 -82.6864 235° Southwest 483 556 40,000  Level Atlanta Center
Sun 03:22:32 PM 36.2044 -82.8164 233° Southwest 478 550 40,000  Level Atlanta Center
Sun 03:23:32 PM 36.1286 -82.9514 235° Southwest 483 556 40,000  Level Atlanta Center
Sun 03:24:32 PM 36.0503 -83.0808 233° Southwest 483 556 40,000  Level Atlanta Center
Sun 03:25:32 PM 35.9719 -83.2153 234° Southwest 483 556 40,000  Level Atlanta Center
Sun 03:26:32 PM 35.8958 -83.3467 234° Southwest 478 550 40,000  Level Atlanta Center
Sun 03:27:32 PM 35.8192 -83.4753 234° Southwest 478 550 40,000  Level Atlanta Center
Sun 03:28:32 PM 35.7383 -83.6089 233° Southwest 484 557 40,000  Level Atlanta Center
Sun 03:29:32 PM 35.6594 -83.7397 233° Southwest 484 557 40,000  Level Atlanta Center
Sun 03:30:32 PM 35.5783 -83.8728 233° Southwest 484 557 40,000  Level Atlanta Center
Sun 03:31:32 PM 35.5014 -84.0006 234° Southwest 484 557 40,000  Level Atlanta Center
Sun 03:32:32 PM 35.4219 -84.1331 234° Southwest 484 557 40,000  Level Atlanta Center
Sun 03:33:32 PM 35.3406 -84.2628 232° Southwest 484 557 40,000 67 Level Atlanta Center
Sun 03:35:32 PM 35.1833 -84.5242 234° Southwest 484 557 40,200 400 Climbing Atlanta Center
Sun 03:36:32 PM 35.1136 -84.6633 239° Southwest 479 551 41,200 950 Climbing Atlanta Center
Sun 03:37:32 PM 35.0544 -84.8050 243° Southwest 479 551 42,100 900 Climbing Atlanta Center
Sun 03:38:32 PM 34.9931 -84.9439 242° Southwest 472 543 43,000 450 Climbing Atlanta Center
Sun 03:39:32 PM 34.9336 -85.0853 243° Southwest 467 537 43,000  Level Atlanta Center
Sun 03:40:32 PM 34.8736 -85.2339 244° Southwest 472 543 43,000  Level Atlanta Center
Sun 03:41:32 PM 34.8222 -85.3619 244° Southwest 472 543 43,000  Level Atlanta Center
Sun 03:42:32 PM 34.7622 -85.5078 243° Southwest 472 543 43,000  Level Atlanta Center
Sun 03:43:32 PM 34.7019 -85.6533 243° Southwest 477 549 43,000  Level Atlanta Center
Sun 03:44:32 PM 34.6394 -85.7986 242° Southwest 489 563 43,000  Level Atlanta Center
Sun 03:45:32 PM 34.5706 -85.9508 241° Southwest 480 552 43,000  Level Atlanta Center
Sun 03:46:32 PM 34.5033 -86.0956 241° Southwest 480 552 43,000  Level Atlanta Center
Sun 03:47:32 PM 34.4361 -86.2375 240° Southwest 480 552 43,000  Level Atlanta Center
Sun 03:48:32 PM 34.3689 -86.3792 240° Southwest 487 560 43,000  Level Atlanta Center
Sun 03:49:32 PM 34.3036 -86.5208 241° Southwest 482 555 43,000  Level Atlanta Center
Sun 03:50:32 PM 34.2358 -86.6619 240° Southwest 482 555 43,000  Level Atlanta Center
Sun 03:51:32 PM 34.1681 -86.8056 240° Southwest 482 555 43,000  Level Atlanta Center
Sun 03:52:32 PM 34.1000 -86.9489 240° Southwest 482 555 43,000  Level Atlanta Center
Sun 03:53:32 PM 34.0361 -87.0894 241° Southwest 482 555 43,000  Level Atlanta Center
Sun 03:53:56 PM 34.0147 -87.1597 250° West 487 560 43,000  Level Memphis Center
Sun 03:54:56 PM 33.9658 -87.2967 247° West 476 548 43,000  Level Memphis Center
Sun 03:55:56 PM 33.9172 -87.4486 249° West 477 549 43,000  Level Memphis Center
Sun 03:56:56 PM 33.8725 -87.5803 248° West 477 549 43,000  Level Memphis Center
Sun 03:57:56 PM 33.8194 -87.7319 247° West 482 555 43,000  Level Memphis Center
Sun 03:58:56 PM 33.7722 -87.8833 249° West 493 567 43,000  Level Memphis Center
Sun 03:59:56 PM 33.7167 -88.0322 246° West 493 567 43,000  Level Memphis Center
Sun 04:00:56 PM 33.6442 -88.1714 238° Southwest 493 567 43,000  Level Memphis Center
Sun 04:01:56 PM 33.5714 -88.3103 238° Southwest 493 567 43,000  Level Memphis Center
Sun 04:02:56 PM 33.4944 -88.4617 239° Southwest 498 573 43,000  Level Memphis Center
Sun 04:03:56 PM 33.4214 -88.6025 238° Southwest 498 573 43,000  Level Memphis Center
Sun 04:04:56 PM 33.3481 -88.7383 237° Southwest 503 579 43,000  Level Memphis Center
Sun 04:05:56 PM 33.2619 -88.8692 232° Southwest 503 579 43,000  Level Memphis Center
Sun 04:06:56 PM 33.1736 -88.9922 229° Southwest 503 579 43,000  Level Memphis Center
Sun 04:07:56 PM 33.0811 -89.1150 228° Southwest 498 573 43,000  Level Memphis Center
Sun 04:08:56 PM 32.9883 -89.2378 228° Southwest 503 579 43,000  Level Memphis Center
Sun 04:09:56 PM 32.8956 -89.3603 228° Southwest 503 579 43,000  Level Memphis Center
Sun 04:10:56 PM 32.8003 -89.4847 228° Southwest 503 579 43,000  Level Memphis Center
Sun 04:11:56 PM 32.7072 -89.6117 229° Southwest 503 579 43,000  Level Memphis Center
Sun 04:12:56 PM 32.6139 -89.7358 228° Southwest 503 579 43,000  Level Memphis Center
Sun 04:13:56 PM 32.5353 -89.8744 236° Southwest 509 586 43,000  Level Memphis Center
Sun 04:14:56 PM 32.4628 -90.0125 238° Southwest 509 586 43,000  Level Memphis Center
Sun 04:15:56 PM 32.3878 -90.1506 237° Southwest 509 586 43,000  Level Memphis Center
Sun 04:16:56 PM 32.3108 -90.2886 237° Southwest 503 579 43,000  Level Memphis Center
Sun 04:17:56 PM 32.2356 -90.4236 237° Southwest 503 579 43,000  Level Memphis Center
Sun 04:20:28 PM 32.0658 -90.7597 239° Southwest 503 579 43,000  Level Houston Center
Sun 04:21:30 PM 32.0283 -90.9444 257° West 491 565 43,000  Level Houston Center
Sun 04:22:32 PM 31.9947 -91.1019 256° West 494 568 43,000  Level Houston Center
Sun 04:23:35 PM 31.9578 -91.2572 254° West 493 567 43,000  Level Houston Center
Sun 04:24:37 PM 31.9239 -91.4144 256° West 495 570 43,000  Level Houston Center
Sun 04:25:39 PM 31.8917 -91.5711 256° West 495 570 43,000  Level Houston Center
Sun 04:26:41 PM 31.8394 -91.7192 247° West 501 577 43,000  Level Houston Center
Sun 04:27:43 PM 31.7631 -91.8894 242° Southwest 493 567 43,000  Level Houston Center
Sun 04:28:45 PM 31.7008 -92.0336 243° Southwest 496 571 43,000  Level Houston Center
Sun 04:29:47 PM 31.6403 -92.1639 241° Southwest 498 573 43,000  Level Houston Center
Sun 04:30:49 PM 31.5639 -92.3364 243° Southwest 499 574 43,000  Level Houston Center
Sun 04:31:51 PM 31.5039 -92.4800 244° Southwest 495 570 43,000  Level Houston Center
Sun 04:32:53 PM 31.4392 -92.6239 242° Southwest 507 583 43,000  Level Houston Center
Sun 04:33:55 PM 31.3758 -92.7675 243° Southwest 501 577 43,000  Level Houston Center
Sun 04:34:57 PM 31.3117 -92.9131 243° Southwest 497 572 43,000  Level Houston Center
Sun 04:36:00 PM 31.2467 -93.0536 242° Southwest 496 571 43,000  Level Houston Center
Sun 04:37:02 PM 31.1714 -93.2208 242° Southwest 494 568 43,000  Level Houston Center
Sun 04:38:04 PM 31.1081 -93.3625 242° Southwest 495 570 43,000  Level Houston Center
Sun 04:39:06 PM 31.0433 -93.5039 242° Southwest 495 570 43,000  Level Houston Center
Sun 04:40:08 PM 30.9792 -93.6444 242° Southwest 496 571 43,000  Level Houston Center
Sun 04:41:10 PM 30.9144 -93.7872 242° Southwest 501 577 43,000  Level Houston Center
Sun 04:42:12 PM 30.8353 -93.9578 242° Southwest 502 578 43,000  Level Houston Center
Sun 04:43:14 PM 30.7692 -94.1003 242° Southwest 503 579 43,000  Level Houston Center
Sun 04:44:16 PM 30.7033 -94.2422 242° Southwest 504 580 43,000  Level Houston Center
Sun 04:45:18 PM 30.6386 -94.3864 242° Southwest 506 582 43,000  Level Houston Center
Sun 04:46:20 PM 30.5567 -94.5569 241° Southwest 503 579 43,000  Level Houston Center
Sun 04:47:22 PM 30.4897 -94.6983 241° Southwest 499 574 43,000  Level Houston Center
Sun 04:48:25 PM 30.4306 -94.8294 242° Southwest 506 582 43,000 -96 Level Houston Center
Sun 04:49:27 PM 30.3661 -94.9728 243° Southwest 505 581 42,800 -1,113 Descending Houston Center
Sun 04:50:29 PM 30.3156 -95.1514 252° West 492 566 40,700 -2,081 Descending Houston Center
Sun 04:51:31 PM 30.2758 -95.2911 252° West 465 535 38,500 -2,274 Descending Houston Center
Sun 04:52:33 PM 30.2392 -95.4292 253° West 454 522 36,000 -2,419 Descending Houston Center
Sun 04:53:35 PM 30.1967 -95.5808 252° West 491 565 33,500 -2,419 Descending Houston Center
Sun 04:54:37 PM 30.1411 -95.7267 246° West 502 578 31,000 -1,742 Descending Houston Center
Sun 04:55:39 PM 30.0281 -95.8717 228° Southwest 510 587 29,900 -1,258 Descending Houston Center
Sun 04:56:41 PM 29.9333 -95.9900 227° Southwest 507 583 28,400 -1,597 Descending Houston Center
Sun 04:57:43 PM 29.8550 -96.1300 237° Southwest 507 583 26,600 -1,694 Descending Houston Center
Sun 04:58:45 PM 29.8600 -96.2831 272° West 498 573 24,900 -2,371 Descending Houston Center
Sun 04:59:47 PM 29.9050 -96.4211 291° West 465 535 21,700 -2,832 Descending Houston Center
Sun 05:00:50 PM 29.9447 -96.5467 290° West 426 490 19,000 -3,072 Descending Houston Center
Sun 05:01:52 PM 29.9950 -96.7003 291° West 431 496 15,300 -3,145 Descending Houston Center
Sun 05:02:54 PM 30.0350 -96.8267 290° West 424 488 12,500 -1,645 Descending Houston Center
Sun 05:03:56 PM 30.0711 -96.9442 290° West 397 457 11,900 -532 Descending Houston Center
Sun 05:04:58 PM 30.1044 -97.0567 289° West 385 443 11,400 -1,258 Descending Houston Center
Sun 05:06:00 PM 30.1403 -97.1764 289° West 342 394 9,300 -2,226 Descending Houston Center
Sun 05:07:02 PM 30.1653 -97.2581 290° West 281 323 6,800 -1,597 Descending Houston Center
Sun 05:08:04 PM 30.1933 -97.3394 292° West 272 313 6,000 -968 Descending Houston Center
Sun 05:09:06 PM 30.2283 -97.4169 298° West 270 311 4,800 -968 Descending Houston Center
Sun 05:10:08 PM 30.2644 -97.4961 298° West 273 314 4,000 -387 Descending Houston Center
Sun 05:11:10 PM 30.2928 -97.5561 299° West 221 254 4,000 -387 Level Houston Center
Sun 05:12:12 PM 30.3222 -97.6167 299° West 212 244 3,200 -1,008 Descending Houston Center
Sun 05:13:15 PM 30.2844 -97.6611 225° Southwest 201 231 1,900 -912 Descending Houston Center
Sun 05:14:17 PM 30.2406 -97.6578 176° South 170 196 1,300 -435 Descending Houston Center
Sun 05:15:19 PM 30.2086 -97.6550 176° South 159 183 1,000 -290 Descending Houston Center

Login

Don't have an account? Register now (free) for customized features, flight alerts, and more!